Time;durP1;ratioP1;P1;durP2;ratioP2;P2;SDS_P1;SDS_P2;PMS_P1;PMS_P2;Temp;Humidity;BMP_temperature;BMP_pressure;BME280_temperature;BME280_humidity;BME280_pressure;Samples;Min_cycle;Max_cycle;Signal;HPM_P1;HPM_P2
2022/08/20 00:00:57;;;;;;;2.42;1.88;;;16.50;99.90;;;;;;5078537;28;19920;-47
2022/08/20 00:03:37;;;;;;;2.20;1.83;;;16.40;99.90;;;;;;5071698;28;20041;-48
2022/08/20 00:06:12;;;;;;;3.22;2.38;;;16.50;99.90;;;;;;5071971;28;20048;-47
2022/08/20 00:08:39;;;;;;;2.55;2.10;;;16.40;99.90;;;;;;5072050;28;20048;-47
2022/08/20 00:11:09;;;;;;;3.55;2.08;;;16.40;99.90;;;;;;5072216;28;20102;-47
2022/08/20 00:13:40;;;;;;;2.83;1.88;;;16.40;99.90;;;;;;5071417;28;20044;-47
2022/08/20 00:16:08;;;;;;;2.47;1.75;;;16.40;99.90;;;;;;5071749;28;20043;-47
2022/08/20 00:18:37;;;;;;;2.85;1.63;;;16.30;99.90;;;;;;5082950;28;20040;-47
2022/08/20 00:21:11;;;;;;;2.92;2.10;;;16.30;99.90;;;;;;5092158;28;20097;-47
2022/08/20 00:23:48;;;;;;;4.75;1.75;;;16.40;99.90;;;;;;5080181;28;20036;-47
2022/08/20 00:26:17;;;;;;;2.17;1.65;;;16.30;99.90;;;;;;5071618;28;20049;-47
2022/08/20 00:28:43;;;;;;;1.65;1.55;;;16.40;99.90;;;;;;5070325;28;20045;-46
2022/08/20 00:31:12;;;;;;;1.98;1.50;;;16.40;99.90;;;;;;5071279;28;20497;-46
2022/08/20 00:33:39;;;;;;;1.60;1.40;;;16.40;99.90;;;;;;5072985;28;20048;-47
2022/08/20 00:36:08;;;;;;;1.50;1.40;;;16.40;99.90;;;;;;5071431;28;20033;-47
2022/08/20 00:38:41;;;;;;;1.85;1.35;;;16.40;99.90;;;;;;5071465;28;20044;-47
2022/08/20 00:41:13;;;;;;;1.80;1.25;;;16.30;99.90;;;;;;5071348;28;20048;-48
2022/08/20 00:43:42;;;;;;;1.60;1.30;;;16.30;99.90;;;;;;5070929;28;20098;-47
2022/08/20 00:46:16;;;;;;;1.52;1.15;;;16.30;99.90;;;;;;5087341;22;20048;-47
2022/08/20 00:48:46;;;;;;;2.60;1.23;;;16.30;99.90;;;;;;5086109;28;20045;-46
2022/08/20 00:51:26;;;;;;;1.38;1.27;;;16.20;99.90;;;;;;5096556;28;20039;-47
2022/08/20 00:54:21;;;;;;;3.03;1.10;;;16.30;99.90;;;;;;5080646;28;20507;-47
2022/08/20 00:56:53;;;;;;;3.83;1.45;;;16.30;99.90;;;;;;5076714;28;20043;-47
2022/08/20 00:59:24;;;;;;;1.67;1.30;;;16.20;99.90;;;;;;5073710;28;20048;-47
2022/08/20 01:01:51;;;;;;;2.17;1.20;;;16.20;99.90;;;;;;5111291;28;20042;-46
2022/08/20 01:04:23;;;;;;;1.50;1.15;;;16.20;99.90;;;;;;5110784;28;20105;-48
2022/08/20 01:06:51;;;;;;;1.50;1.08;;;16.20;99.90;;;;;;5111831;28;20048;-49
2022/08/20 01:09:17;;;;;;;1.13;0.90;;;16.20;99.90;;;;;;5090577;28;20094;-47
2022/08/20 01:12:05;;;;;;;1.42;1.02;;;16.20;99.90;;;;;;5098419;28;20449;-47
2022/08/20 01:17:04;;;;;;;2.42;1.33;;;16.20;99.90;;;;;;5097110;28;20403;-46
2022/08/20 01:19:47;;;;;;;2.20;1.30;;;16.20;99.90;;;;;;5111366;28;20043;-46
2022/08/20 01:25:51;;;;;;;1.85;1.20;;;16.20;99.90;;;;;;5100604;28;20028;-47
2022/08/20 01:28:22;;;;;;;2.45;1.10;;;16.10;99.90;;;;;;5091642;28;20054;-46
2022/08/20 01:30:49;;;;;;;1.15;1.05;;;16.20;99.90;;;;;;5070757;28;20106;-47
2022/08/20 01:33:18;;;;;;;1.65;1.20;;;16.20;99.90;;;;;;5056182;28;20044;-47
2022/08/20 01:35:45;;;;;;;1.63;1.30;;;16.20;99.90;;;;;;5082236;28;20043;-47
2022/08/20 01:38:13;;;;;;;1.42;1.15;;;16.20;99.90;;;;;;5091283;28;20500;-47
2022/08/20 01:40:58;;;;;;;1.42;1.33;;;16.10;99.90;;;;;;5095424;28;20465;-47
2022/08/20 01:43:25;;;;;;;4.80;1.20;;;16.10;99.90;;;;;;5100160;28;20036;-47
2022/08/20 01:45:53;;;;;;;5.25;1.50;;;16.10;99.90;;;;;;5095074;28;20051;-46
2022/08/20 01:48:21;;;;;;;2.03;1.65;;;16.10;99.90;;;;;;5111266;28;20047;-47
2022/08/20 01:50:58;;;;;;;3.33;1.35;;;16.10;99.90;;;;;;5108935;28;20031;-47
2022/08/20 01:53:37;;;;;;;1.33;1.20;;;16.00;99.90;;;;;;5111333;28;20380;-47
2022/08/20 01:56:08;;;;;;;2.28;1.15;;;16.00;99.90;;;;;;5111066;28;20036;-47
2022/08/20 01:58:39;;;;;;;2.38;1.30;;;16.00;99.90;;;;;;5103148;28;20483;-47
2022/08/20 02:01:06;;;;;;;1.65;1.42;;;16.00;99.90;;;;;;5082762;28;20036;-48
2022/08/20 02:03:33;;;;;;;1.77;1.50;;;16.00;99.90;;;;;;5107174;28;20488;-47
2022/08/20 02:06:06;;;;;;;4.18;1.48;;;16.00;99.90;;;;;;5090683;28;20432;-47
2022/08/20 02:08:33;;;;;;;5.20;1.42;;;15.90;99.90;;;;;;5093698;28;20058;-47
2022/08/20 02:10:59;;;;;;;2.58;1.50;;;16.00;99.90;;;;;;5111392;28;20047;-47
2022/08/20 02:13:27;;;;;;;3.10;1.83;;;16.00;99.90;;;;;;5108135;28;20044;-47
2022/08/20 02:15:54;;;;;;;2.20;1.60;;;16.00;99.90;;;;;;5094560;28;20044;-47
2022/08/20 02:18:21;;;;;;;;;;;15.90;99.90;;;;;;5097486;28;20051;-47
2022/08/20 02:20:50;;;;;;;1.92;1.60;;;16.00;99.90;;;;;;5076176;28;19920;-49
2022/08/20 02:23:17;;;;;;;2.75;1.67;;;15.90;99.90;;;;;;5081468;28;20056;-47
2022/08/20 02:25:46;;;;;;;;;;;16.00;99.90;;;;;;5075930;28;20093;-47
2022/08/20 02:28:18;;;;;;;2.58;1.75;;;16.00;99.90;;;;;;5089983;28;20020;-47
2022/08/20 02:30:49;;;;;;;1.83;1.50;;;16.00;99.90;;;;;;5090907;28;20044;-47
2022/08/20 02:33:18;;;;;;;2.00;1.70;;;15.90;99.90;;;;;;5099402;28;20044;-46
2022/08/20 02:35:51;;;;;;;4.07;1.92;;;15.90;99.90;;;;;;5110294;28;20097;-47
2022/08/20 02:38:18;;;;;;;1.73;1.40;;;15.90;99.90;;;;;;5110582;28;20533;-47
2022/08/20 02:40:45;;;;;;;1.98;1.58;;;15.90;99.90;;;;;;5105197;28;20600;-46
2022/08/20 02:43:13;;;;;;;;;;;15.90;99.90;;;;;;5110756;28;20035;-47
2022/08/20 02:45:42;;;;;;;7.22;1.55;;;15.90;99.90;;;;;;5109643;28;19924;-47
2022/08/20 02:48:17;;;;;;;2.40;1.90;;;15.90;99.90;;;;;;5111488;28;20123;-46
2022/08/20 02:50:44;;;;;;;3.75;1.77;;;15.90;99.90;;;;;;5113716;28;20043;-47
2022/08/20 02:53:10;;;;;;;2.47;1.95;;;15.90;99.90;;;;;;5114641;28;20051;-46
2022/08/20 02:55:37;;;;;;;2.45;1.77;;;15.90;99.90;;;;;;5093256;28;20040;-47
2022/08/20 02:58:04;;;;;;;4.43;2.20;;;15.90;99.90;;;;;;5090187;28;20515;-47
2022/08/20 03:00:31;;;;;;;2.40;1.83;;;15.90;99.90;;;;;;5093210;28;20450;-47
2022/08/20 03:03:06;;;;;;;2.05;1.42;;;15.90;99.90;;;;;;5110554;28;20032;-47
2022/08/20 03:05:33;;;;;;;4.90;2.00;;;15.90;99.90;;;;;;5113789;28;20101;-47
2022/08/20 03:08:02;;;;;;;1.60;1.50;;;15.90;99.90;;;;;;5108372;28;20445;-47
2022/08/20 03:10:33;;;;;;;4.53;2.15;;;15.90;99.90;;;;;;5113753;28;20059;-46
2022/08/20 03:13:01;;;;;;;2.60;1.92;;;15.90;99.90;;;;;;5094959;28;20380;-46
2022/08/20 03:15:30;;;;;;;2.90;1.90;;;15.80;99.90;;;;;;5113984;28;20051;-46
2022/08/20 03:17:57;;;;;;;2.35;1.77;;;15.80;99.90;;;;;;5107620;28;20392;-46
2022/08/20 03:20:26;;;;;;;2.50;1.80;;;15.80;99.90;;;;;;5085196;28;20095;-47
2022/08/20 03:22:52;;;;;;;1.92;1.75;;;15.80;99.90;;;;;;5093726;28;20040;-47
2022/08/20 03:25:20;;;;;;;3.63;1.85;;;15.80;99.90;;;;;;5102464;28;20039;-46
2022/08/20 03:27:48;;;;;;;4.22;1.92;;;15.90;99.90;;;;;;5113824;28;20039;-46
2022/08/20 03:30:21;;;;;;;2.72;1.90;;;15.90;99.90;;;;;;5113790;28;20480;-47
2022/08/20 03:32:49;;;;;;;2.17;1.83;;;15.80;99.90;;;;;;5098028;28;21036;-47
2022/08/20 03:35:18;;;;;;;3.75;2.20;;;15.80;99.90;;;;;;5110890;28;20039;-47
2022/08/20 03:37:45;;;;;;;2.88;1.60;;;15.80;99.90;;;;;;5113345;28;20046;-46
2022/08/20 03:40:17;;;;;;;3.58;1.98;;;15.80;99.90;;;;;;5113807;28;20040;-46
2022/08/20 03:42:44;;;;;;;2.85;1.70;;;15.80;99.90;;;;;;5089800;28;20036;-46
2022/08/20 03:45:12;;;;;;;2.42;2.03;;;15.90;99.90;;;;;;5090012;28;20032;-46
2022/08/20 03:47:46;;;;;;;3.38;2.15;;;15.80;99.90;;;;;;5104744;28;20089;-47
2022/08/20 03:50:13;;;;;;;2.60;2.28;;;15.80;99.90;;;;;;5112904;28;20058;-46
2022/08/20 03:52:50;;;;;;;4.43;1.90;;;15.80;99.90;;;;;;5112796;28;20055;-48
2022/08/20 03:55:17;;;;;;;2.67;2.00;;;15.80;99.90;;;;;;5105031;28;20044;-47
2022/08/20 03:57:50;;;;;;;3.05;2.00;;;15.80;99.90;;;;;;5084275;28;20036;-46
2022/08/20 04:00:34;;;;;;;5.35;2.20;;;15.90;99.90;;;;;;5093115;28;20040;-47
2022/08/20 04:03:00;;;;;;;3.50;2.13;;;15.90;99.90;;;;;;5107674;28;20040;-47
2022/08/20 04:05:30;;;;;;;3.38;2.35;;;15.90;99.90;;;;;;5112813;28;20048;-47
2022/08/20 04:07:58;;;;;;;3.42;1.67;;;15.90;99.90;;;;;;5107688;28;20048;-47
2022/08/20 04:10:30;;;;;;;2.75;1.85;;;15.80;99.90;;;;;;5112724;28;20044;-46
2022/08/20 04:12:56;;;;;;;2.60;2.08;;;15.80;99.90;;;;;;5111962;28;20051;-47
2022/08/20 04:15:25;;;;;;;2.47;1.90;;;15.80;99.90;;;;;;5112721;28;20051;-46
2022/08/20 04:17:52;;;;;;;2.88;2.00;;;15.80;99.90;;;;;;5108500;28;20040;-46
2022/08/20 04:20:22;;;;;;;3.47;1.80;;;15.80;99.90;;;;;;5084036;28;20094;-46
2022/08/20 04:22:50;;;;;;;2.00;1.50;;;15.70;99.90;;;;;;5092662;28;20105;-46
2022/08/20 04:25:30;;;;;;;3.05;1.70;;;15.80;99.90;;;;;;5101874;28;20036;-48
2022/08/20 04:28:04;;;;;;;2.45;1.70;;;15.80;99.90;;;;;;5112726;28;20078;-46
2022/08/20 04:30:32;;;;;;;2.70;1.67;;;15.80;99.90;;;;;;5112565;28;20073;-47
2022/08/20 04:32:59;;;;;;;1.90;1.50;;;15.90;99.90;;;;;;5094903;28;20044;-47
2022/08/20 04:35:26;;;;;;;;;;;15.80;99.90;;;;;;5111726;28;20093;-47
2022/08/20 04:38:03;;;;;;;2.72;2.00;;;15.80;99.90;;;;;;5112187;28;19930;-47
2022/08/20 04:43:15;;;;;;;2.60;1.63;;;15.80;99.90;;;;;;5083562;28;20037;-46
2022/08/20 04:45:42;;;;;;;2.92;1.92;;;15.80;99.90;;;;;;5091636;28;20040;-47
2022/08/20 04:48:10;;;;;;;2.53;1.90;;;15.90;99.90;;;;;;5092214;28;20059;-47
2022/08/20 04:50:43;;;;;;;3.92;2.00;;;15.90;99.90;;;;;;5104281;28;20035;-46
2022/08/20 04:53:13;;;;;;;3.45;2.20;;;15.80;99.90;;;;;;5112152;28;20096;-47
2022/08/20 04:55:41;;;;;;;2.55;2.03;;;15.80;99.90;;;;;;5079205;28;20043;-46
2022/08/20 04:58:38;;;;;;;2.72;1.80;;;15.80;99.90;;;;;;5070973;28;20072;-47
2022/08/20 05:01:09;;;;;;;3.90;2.20;;;15.80;99.90;;;;;;5078333;28;20040;-47
2022/08/20 05:03:40;;;;;;;2.55;1.85;;;15.90;99.90;;;;;;5096266;28;20035;-47
2022/08/20 05:06:09;;;;;;;4.40;1.92;;;15.90;99.90;;;;;;5110619;28;20065;-47
2022/08/20 05:08:37;;;;;;;2.63;1.92;;;15.90;99.90;;;;;;5112365;28;20054;-47
2022/08/20 05:11:05;;;;;;;3.50;2.05;;;15.90;99.90;;;;;;5098661;28;20089;-46
2022/08/20 05:13:52;;;;;;;3.75;1.98;;;15.90;99.90;;;;;;5111619;28;20083;-47
2022/08/20 05:16:20;;;;;;;3.67;2.40;;;15.90;99.90;;;;;;5111282;28;20407;-46
2022/08/20 05:18:46;;;;;;;2.83;2.05;;;15.90;99.90;;;;;;5102491;28;20032;-47
2022/08/20 05:21:18;;;;;;;2.72;2.15;;;16.00;99.90;;;;;;5110045;28;20036;-46
2022/08/20 05:23:46;;;;;;;2.45;1.95;;;16.00;99.90;;;;;;5111185;28;20074;-46
2022/08/20 05:26:14;;;;;;;3.33;1.88;;;16.00;99.90;;;;;;5093230;28;20044;-46
2022/08/20 05:28:42;;;;;;;6.10;2.75;;;16.00;99.90;;;;;;5111124;28;20540;-47
2022/08/20 05:31:28;;;;;;;4.45;2.08;;;16.00;99.90;;;;;;5106310;28;20108;-46
2022/08/20 05:34:08;;;;;;;3.47;2.20;;;16.00;99.90;;;;;;5110912;28;20415;-47
2022/08/20 05:36:46;;;;;;;3.92;2.33;;;16.00;99.90;;;;;;5111053;28;20062;-46
2022/08/20 05:39:17;;;;;;;3.22;2.55;;;16.00;99.90;;;;;;5105552;28;20044;-46
2022/08/20 05:41:44;;;;;;;4.45;2.40;;;16.10;99.90;;;;;;5109431;28;20047;-49
2022/08/20 05:44:12;;;;;;;5.32;2.45;;;16.10;99.90;;;;;;5099124;28;20382;-46
2022/08/20 05:46:42;;;;;;;3.55;2.58;;;16.10;99.90;;;;;;5102536;28;20035;-47
2022/08/20 05:49:11;;;;;;;3.42;2.22;;;16.10;99.90;;;;;;5109995;28;20031;-47
2022/08/20 05:51:38;;;;;;;5.25;2.65;;;16.10;99.90;;;;;;5103818;28;20039;-47
2022/08/20 05:54:05;;;;;;;2.03;1.70;;;16.10;99.90;;;;;;5110480;28;20059;-49
2022/08/20 05:56:33;;;;;;;4.03;2.30;;;16.00;99.90;;;;;;5110622;28;20040;-47
2022/08/20 05:59:02;;;;;;;2.65;2.17;;;16.00;99.90;;;;;;5106289;28;20035;-46
2022/08/20 06:01:31;;;;;;;3.40;2.63;;;16.00;99.90;;;;;;5111368;28;20043;-46
2022/08/20 06:06:44;;;;;;;2.88;2.30;;;16.00;99.90;;;;;;5110407;28;20536;-47
2022/08/20 06:09:17;;;;;;;3.58;2.42;;;16.00;99.90;;;;;;5082271;28;20035;-46
2022/08/20 06:11:58;;;;;;;3.08;2.05;;;15.90;99.90;;;;;;5091331;28;20044;-47
2022/08/20 06:14:25;;;;;;;6.43;2.38;;;16.00;99.90;;;;;;5090467;28;20127;-46
2022/08/20 06:16:52;;;;;;;2.80;2.13;;;15.90;99.90;;;;;;5095878;28;20235;-47
2022/08/20 06:19:25;;;;;;;4.70;3.10;;;15.90;99.90;;;;;;5100269;28;20101;-48
2022/08/20 06:21:52;;;;;;;3.50;2.40;;;15.90;99.90;;;;;;5087484;28;20047;-47
2022/08/20 06:24:20;;;;;;;2.90;2.13;;;15.90;99.90;;;;;;5083169;28;20083;-47
2022/08/20 06:26:46;;;;;;;10.05;2.55;;;15.90;99.90;;;;;;5074535;28;20048;-48
2022/08/20 06:29:14;;;;;;;1.92;1.77;;;15.90;99.90;;;;;;5073619;28;20098;-48
2022/08/20 06:31:41;;;;;;;3.85;2.53;;;15.90;99.90;;;;;;5084978;28;20042;-47
2022/08/20 06:34:08;;;;;;;2.92;2.17;;;16.00;99.90;;;;;;5114582;28;20036;-47
2022/08/20 06:36:35;;;;;;;2.58;2.05;;;16.00;99.90;;;;;;5114634;28;20051;-46
2022/08/20 06:39:01;;;;;;;5.10;2.35;;;16.10;99.90;;;;;;5108631;28;20064;-49
2022/08/20 06:41:28;;;;;;;4.82;1.85;;;16.20;99.90;;;;;;5107570;28;20402;-47
2022/08/20 06:44:03;;;;;;;2.55;1.73;;;16.20;99.90;;;;;;5114177;28;20063;-47
2022/08/20 06:46:31;;;;;;;2.45;1.70;;;16.30;99.90;;;;;;5114935;22;20088;-47
2022/08/20 06:49:22;;;;;;;2.40;2.03;;;16.30;99.90;;;;;;5112915;28;20035;-48
2022/08/20 06:51:58;;;;;;;2.13;1.88;;;16.30;99.90;;;;;;5101074;28;20044;-49
2022/08/20 06:54:25;;;;;;;2.72;2.25;;;16.30;99.90;;;;;;5105116;28;20408;-48
2022/08/20 06:56:55;;;;;;;3.22;2.05;;;16.30;99.90;;;;;;5089908;28;20050;-48
2022/08/20 06:59:21;;;;;;;4.82;2.20;;;16.30;99.90;;;;;;5122715;27;20088;-48
2022/08/20 07:01:48;;;;;;;2.78;2.20;;;16.30;99.90;;;;;;5111696;27;20101;-49
2022/08/20 07:04:15;;;;;;;4.60;2.05;;;16.30;99.90;;;;;;5104557;28;20441;-50
2022/08/20 07:06:42;;;;;;;2.50;2.20;;;16.20;99.90;;;;;;5105485;28;20491;-49
2022/08/20 07:09:09;;;;;;;3.00;1.92;;;16.30;99.90;;;;;;5107704;28;20043;-48
2022/08/20 07:11:36;;;;;;;3.30;2.28;;;16.20;99.90;;;;;;5107419;28;20093;-47
2022/08/20 07:14:04;;;;;;;3.97;2.10;;;16.20;99.90;;;;;;5103122;28;20042;-48
2022/08/20 07:16:31;;;;;;;4.03;2.20;;;16.20;99.90;;;;;;5083875;28;20039;-48
2022/08/20 07:18:57;;;;;;;4.93;2.40;;;16.20;99.90;;;;;;5109499;28;20040;-47
2022/08/20 07:21:24;;;;;;;5.13;2.42;;;16.10;99.90;;;;;;5113910;28;20036;-51
2022/08/20 07:23:52;;;;;;;3.30;2.45;;;16.20;99.90;;;;;;5111186;28;20094;-47
2022/08/20 07:26:18;;;;;;;;;;;16.10;99.90;;;;;;5111379;28;20043;-47
2022/08/20 07:28:45;;;;;;;4.35;2.58;;;16.10;99.90;;;;;;5111805;28;19927;-48
2022/08/20 07:34:00;;;;;;;2.05;1.58;;;16.10;99.90;;;;;;5092928;28;20052;-48
2022/08/20 07:36:29;;;;;;;2.63;2.15;;;16.20;99.90;;;;;;5103516;28;20044;-51
2022/08/20 07:38:55;;;;;;;2.38;1.73;;;16.20;99.90;;;;;;5113436;28;20081;-47
2022/08/20 07:41:23;;;;;;;3.60;2.08;;;16.30;99.90;;;;;;5112184;28;20411;-50
2022/08/20 07:43:49;;;;;;;;;;;16.40;99.90;;;;;;5113416;28;20046;-48
2022/08/20 07:46:20;;;;;;;2.65;2.10;;;16.50;99.90;;;;;;5111732;28;19942;-50
2022/08/20 07:48:48;;;;;;;3.22;1.50;;;16.60;99.90;;;;;;5113185;28;20073;-47
2022/08/20 07:51:21;;;;;;;2.13;1.88;;;16.60;99.90;;;;;;5112445;28;20449;-47
2022/08/20 07:53:49;;;;;;;2.00;1.67;;;16.70;99.90;;;;;;5111558;28;20236;-47
2022/08/20 07:56:20;;;;;;;1.73;1.45;;;16.80;99.90;;;;;;5111500;28;20052;-47
2022/08/20 07:58:51;;;;;;;3.45;2.15;;;16.80;99.90;;;;;;5112450;28;20069;-48
2022/08/20 08:01:29;;;;;;;2.88;1.75;;;16.90;99.90;;;;;;5108322;28;20093;-48
2022/08/20 08:03:56;;;;;;;;;;;17.00;99.90;;;;;;5106674;28;20069;-50
2022/08/20 08:06:26;;;;;;;2.08;1.83;;;16.90;99.90;;;;;;5101790;28;19943;-49
2022/08/20 08:09:12;;;;;;;2.10;1.63;;;16.80;99.90;;;;;;5106632;28;20048;-47
2022/08/20 08:11:43;;;;;;;1.80;1.60;;;16.80;99.90;;;;;;5093819;28;20093;-48
2022/08/20 08:14:18;;;;;;;1.92;1.65;;;16.70;99.90;;;;;;5095753;28;20039;-50
2022/08/20 08:16:45;;;;;;;2.28;1.73;;;16.70;99.90;;;;;;5112287;28;20040;-49
2022/08/20 08:19:16;;;;;;;2.63;2.00;;;16.70;99.90;;;;;;5112522;28;20046;-48
2022/08/20 08:21:43;;;;;;;3.38;2.05;;;16.70;99.90;;;;;;5110533;28;20046;-49
2022/08/20 08:24:11;;;;;;;2.83;2.28;;;16.70;99.90;;;;;;5111233;28;20035;-51
2022/08/20 08:26:48;;;;;;;3.00;1.88;;;16.70;99.90;;;;;;5111248;28;20062;-49
2022/08/20 08:29:15;;;;;;;2.65;1.98;;;16.60;99.90;;;;;;5112735;28;20495;-48
2022/08/20 08:31:42;;;;;;;;;;;16.70;99.90;;;;;;5092136;28;20039;-49
2022/08/20 08:34:09;;;;;;;2.58;1.80;;;16.80;99.90;;;;;;5111831;28;20332;-48
2022/08/20 08:36:38;;;;;;;2.38;2.03;;;16.80;99.90;;;;;;5110855;28;20043;-51
2022/08/20 08:39:05;;;;;;;2.13;1.65;;;16.90;99.90;;;;;;5111970;28;20047;-50
2022/08/20 08:41:47;;;;;;;2.53;1.75;;;17.00;99.90;;;;;;5108303;28;20072;-48
2022/08/20 08:44:22;;;;;;;2.45;1.70;;;16.80;99.90;;;;;;5111506;28;20562;-47
2022/08/20 08:46:56;;;;;;;1.75;1.60;;;16.80;99.90;;;;;;5111039;28;20040;-48
2022/08/20 08:49:31;;;;;;;2.85;1.85;;;16.80;99.90;;;;;;5111348;28;20051;-49
2022/08/20 08:52:10;;;;;;;2.22;1.85;;;16.80;99.90;;;;;;5112239;28;20054;-49
2022/08/20 08:54:41;;;;;;;2.15;1.63;;;16.80;99.90;;;;;;5111720;28;20053;-49
2022/08/20 08:57:09;;;;;;;1.75;1.48;;;16.70;99.90;;;;;;5110733;28;20602;-50
2022/08/20 08:59:36;;;;;;;5.43;2.28;;;16.70;99.90;;;;;;5111555;28;20047;-48
2022/08/20 09:02:25;;;;;;;3.28;1.90;;;16.70;99.90;;;;;;5111976;28;20051;-48
2022/08/20 09:04:56;;;;;;;2.70;1.73;;;16.60;99.90;;;;;;5109267;28;20054;-47
2022/08/20 09:07:25;;;;;;;4.20;1.60;;;16.60;99.90;;;;;;5108292;28;20444;-51
2022/08/20 09:09:52;;;;;;;2.42;1.60;;;16.50;99.90;;;;;;5105663;28;20499;-48
2022/08/20 09:12:22;;;;;;;4.18;1.95;;;16.50;99.90;;;;;;5110220;28;20040;-48
2022/08/20 09:14:50;;;;;;;3.75;2.03;;;16.60;99.90;;;;;;5110080;28;20084;-48
2022/08/20 09:17:19;;;;;;;3.80;2.00;;;16.70;99.90;;;;;;5108819;28;20040;-48
2022/08/20 09:19:46;;;;;;;2.45;1.77;;;16.80;99.90;;;;;;5109331;28;20032;-47
2022/08/20 09:22:16;;;;;;;3.75;1.88;;;16.90;99.90;;;;;;5110502;28;20127;-48
2022/08/20 09:24:44;;;;;;;3.88;1.80;;;17.00;99.90;;;;;;5104400;28;20388;-48
2022/08/20 09:27:11;;;;;;;6.75;2.35;;;17.10;99.90;;;;;;5105006;28;20137;-49
2022/08/20 09:29:38;;;;;;;4.57;2.85;;;17.30;99.90;;;;;;5099407;28;20036;-47
2022/08/20 09:32:12;;;;;;;4.18;2.50;;;17.40;99.90;;;;;;5109743;28;20039;-51
2022/08/20 09:34:46;;;;;;;2.85;2.30;;;17.50;99.90;;;;;;5102545;28;20074;-51
2022/08/20 09:37:14;;;;;;;4.95;2.38;;;17.60;99.90;;;;;;5101469;28;20404;-50
2022/08/20 09:39:42;;;;;;;3.58;2.00;;;17.80;99.90;;;;;;5110150;28;20046;-49
2022/08/20 09:42:23;;;;;;;2.75;1.75;;;17.70;99.90;;;;;;5109900;28;20031;-50
2022/08/20 09:44:50;;;;;;;3.70;1.90;;;17.60;99.90;;;;;;5110500;28;20039;-48
2022/08/20 09:47:17;;;;;;;2.42;1.98;;;17.50;99.90;;;;;;5109995;28;20044;-49
2022/08/20 09:49:45;;;;;;;4.22;1.83;;;17.40;99.90;;;;;;5109906;28;20483;-48
2022/08/20 09:52:24;;;;;;;3.88;1.90;;;17.40;99.90;;;;;;5112515;28;20040;-51
2022/08/20 09:54:55;;;;;;;1.98;1.52;;;17.60;99.90;;;;;;5086038;28;20411;-48
2022/08/20 09:57:22;;;;;;;2.42;1.83;;;17.80;99.90;;;;;;5108199;28;20036;-49
2022/08/20 09:59:58;;;;;;;2.53;1.80;;;17.60;99.90;;;;;;5105224;28;20036;-47
2022/08/20 10:02:25;;;;;;;2.42;1.77;;;17.60;99.90;;;;;;5084307;28;20150;-51
2022/08/20 10:04:52;;;;;;;4.03;2.00;;;17.80;99.90;;;;;;5099050;28;20582;-48
2022/08/20 10:07:18;;;;;;;2.47;1.67;;;18.00;99.90;;;;;;5104553;28;20149;-50
2022/08/20 10:09:45;;;;;;;1.55;1.45;;;18.10;99.90;;;;;;5109052;28;20043;-48
2022/08/20 10:12:12;;;;;;;2.25;1.63;;;18.00;99.90;;;;;;5113193;28;20074;-48
2022/08/20 10:14:39;;;;;;;2.00;1.80;;;18.00;99.90;;;;;;5107619;28;20111;-48
2022/08/20 10:17:06;;;;;;;2.67;1.80;;;18.10;99.90;;;;;;5112807;28;20039;-49
2022/08/20 10:19:33;;;;;;;2.20;1.88;;;18.20;99.90;;;;;;5113716;28;20040;-48
2022/08/20 10:22:00;;;;;;;4.40;2.83;;;18.00;99.90;;;;;;5114086;28;20040;-48
2022/08/20 10:24:27;;;;;;;4.32;2.90;;;18.00;99.90;;;;;;5076478;28;20052;-51
2022/08/20 10:26:58;;;;;;;;;;;17.80;99.90;;;;;;5099178;28;20032;-50
2022/08/20 10:29:27;;;;;;;3.83;2.58;;;17.40;99.90;;;;;;5093189;28;19997;-51
2022/08/20 10:31:55;;;;;;;3.58;2.83;;;17.10;99.90;;;;;;5114367;28;20035;-50
2022/08/20 10:34:24;;;;;;;6.28;3.15;;;16.90;99.90;;;;;;5112827;28;20040;-48
2022/08/20 10:36:51;;;;;;;4.53;3.05;;;16.80;99.90;;;;;;5114495;27;20047;-50
2022/08/20 10:39:17;;;;;;;4.95;2.95;;;16.70;99.90;;;;;;5113374;28;20760;-49
2022/08/20 10:41:44;;;;;;;6.35;3.53;;;16.60;99.90;;;;;;5113921;28;20043;-52
2022/08/20 10:44:11;;;;;;;4.38;2.90;;;16.50;99.90;;;;;;5112960;28;20040;-48
2022/08/20 10:46:38;;;;;;;4.55;3.00;;;16.30;99.90;;;;;;5113664;28;20089;-50
2022/08/20 10:49:05;;;;;;;4.50;3.15;;;16.30;99.90;;;;;;5113905;28;20048;-49
2022/08/20 10:51:31;;;;;;;4.88;3.00;;;16.30;99.90;;;;;;5114161;28;20044;-50
2022/08/20 10:53:59;;;;;;;2.33;2.00;;;16.40;99.90;;;;;;5112203;27;20492;-49
2022/08/20 10:56:25;;;;;;;3.47;1.88;;;16.50;99.90;;;;;;5113399;28;20043;-49
2022/08/20 10:58:52;;;;;;;3.13;2.20;;;16.70;99.90;;;;;;5113860;28;20518;-48
2022/08/20 11:01:19;;;;;;;3.00;2.33;;;16.80;99.90;;;;;;5113351;28;20376;-49
2022/08/20 11:04:00;;;;;;;3.28;2.20;;;16.90;99.90;;;;;;5099934;28;20084;-52
2022/08/20 11:06:27;;;;;;;3.58;2.50;;;17.10;99.90;;;;;;5113588;28;20036;-49
2022/08/20 11:08:54;;;;;;;3.67;2.47;;;17.30;99.90;;;;;;5113461;28;20051;-47
2022/08/20 11:11:22;;;;;;;4.25;2.72;;;17.40;99.90;;;;;;5112796;28;20043;-47
2022/08/20 11:13:49;;;;;;;5.70;2.70;;;17.30;99.90;;;;;;5106792;28;20047;-48
2022/08/20 11:16:16;;;;;;;3.35;2.53;;;17.30;99.90;;;;;;5113221;28;20051;-48
2022/08/20 11:18:43;;;;;;;3.42;2.60;;;17.20;99.90;;;;;;5105869;28;20035;-49
2022/08/20 11:21:14;;;;;;;5.97;3.03;;;17.20;99.90;;;;;;5113403;28;20051;-50
2022/08/20 11:23:40;;;;;;;5.13;3.78;;;17.10;99.90;;;;;;5111715;28;20051;-48
2022/08/20 11:26:08;;;;;;;5.75;4.03;;;17.00;99.90;;;;;;5106638;28;20043;-50
2022/08/20 11:28:35;;;;;;;6.22;4.32;;;16.80;99.90;;;;;;5112750;28;20400;-50
2022/08/20 11:31:02;;;;;;;7.38;4.55;;;16.70;99.90;;;;;;5113550;28;20048;-49
2022/08/20 11:33:28;;;;;;;10.13;5.18;;;16.50;99.90;;;;;;5111870;28;20130;-48
2022/08/20 11:35:55;;;;;;;6.30;4.63;;;16.50;99.90;;;;;;5113425;28;20399;-49
2022/08/20 11:38:22;;;;;;;;;;;16.50;99.90;;;;;;5112576;28;20040;-51
2022/08/20 11:40:49;;;;;;;8.75;4.38;;;16.80;99.90;;;;;;5112529;28;19919;-51
2022/08/20 11:43:16;;;;;;;7.68;4.88;;;16.90;99.90;;;;;;5112382;28;20048;-51
2022/08/20 11:45:47;;;;;;;4.68;3.45;;;17.30;99.90;;;;;;5112695;28;20108;-49
2022/08/20 11:48:14;;;;;;;3.72;3.10;;;17.60;99.90;;;;;;5112256;28;20513;-50
2022/08/20 11:50:41;;;;;;;3.55;3.10;;;17.90;99.90;;;;;;5105523;28;20043;-50
2022/08/20 11:53:08;;;;;;;3.38;2.70;;;18.20;99.90;;;;;;5111955;28;20100;-49
2022/08/20 11:55:35;;;;;;;4.93;2.70;;;18.50;99.90;;;;;;5105238;28;20092;-49
2022/08/20 11:58:03;;;;;;;4.15;3.03;;;18.70;99.90;;;;;;5107252;28;20036;-51
2022/08/20 12:00:30;;;;;;;3.08;2.55;;;18.80;99.90;;;;;;5103092;28;20054;-51
2022/08/20 12:03:03;;;;;;;4.75;3.38;;;18.80;99.90;;;;;;5107843;27;20040;-51
2022/08/20 12:05:30;;;;;;;8.57;3.40;;;18.80;99.90;;;;;;5094209;28;20040;-52
2022/08/20 12:08:00;;;;;;;4.72;3.40;;;18.70;99.90;;;;;;5101441;28;20039;-48
2022/08/20 12:10:27;;;;;;;3.40;2.65;;;18.60;99.90;;;;;;5107191;28;20048;-52
2022/08/20 12:12:54;;;;;;;3.20;2.90;;;18.50;99.90;;;;;;5102435;28;20091;-51
2022/08/20 12:15:24;;;;;;;3.85;2.80;;;18.30;99.90;;;;;;5094959;28;20117;-49
2022/08/20 12:17:51;;;;;;;6.55;3.75;;;18.30;99.90;;;;;;5109324;28;20413;-51
2022/08/20 12:20:17;;;;;;;3.78;2.50;;;18.30;99.90;;;;;;5098415;28;20045;-52
2022/08/20 12:22:44;;;;;;;4.45;3.25;;;18.30;99.90;;;;;;5111259;28;20035;-51
2022/08/20 12:25:12;;;;;;;3.30;3.00;;;18.30;99.90;;;;;;5100712;28;20044;-51
2022/08/20 12:27:39;;;;;;;;;;;18.00;99.90;;;;;;5103622;28;20032;-49
2022/08/20 12:30:16;;;;;;;4.25;3.17;;;18.00;99.90;;;;;;5101488;28;20291;-50
2022/08/20 12:32:43;;;;;;;5.05;3.30;;;18.10;99.90;;;;;;5100303;28;20502;-48
2022/08/20 12:35:12;;;;;;;4.20;3.30;;;18.10;99.90;;;;;;5104992;28;20072;-49
2022/08/20 12:37:40;;;;;;;3.90;3.03;;;18.00;99.90;;;;;;5102813;28;20043;-52
2022/08/20 12:40:09;;;;;;;;;;;17.90;99.90;;;;;;5101402;28;20060;-49
2022/08/20 12:42:36;;;;;;;5.88;3.03;;;17.90;99.90;;;;;;5106567;28;19926;-48
2022/08/20 12:45:04;;;;;;;4.85;3.45;;;17.80;99.90;;;;;;5102347;28;20036;-50
2022/08/20 12:47:34;;;;;;;5.03;3.60;;;17.80;99.90;;;;;;5107295;28;20119;-48
2022/08/20 12:50:08;;;;;;;4.03;2.90;;;17.70;99.90;;;;;;5102785;28;20043;-51
2022/08/20 12:52:35;;;;;;;3.08;2.78;;;17.60;99.90;;;;;;5104452;28;20050;-48
2022/08/20 12:55:04;;;;;;;4.30;2.72;;;17.50;99.90;;;;;;5104775;28;20051;-47
2022/08/20 12:57:32;;;;;;;3.78;3.28;;;17.50;99.90;;;;;;5101074;28;20047;-48
2022/08/20 13:00:03;;;;;;;6.13;3.40;;;17.50;99.90;;;;;;5101941;28;20486;-47
2022/08/20 13:02:31;;;;;;;5.78;4.00;;;17.50;99.90;;;;;;5102886;28;20483;-47
2022/08/20 13:04:58;;;;;;;6.10;3.90;;;17.50;99.90;;;;;;5101845;28;20036;-48
2022/08/20 13:07:31;;;;;;;5.35;4.05;;;17.50;99.90;;;;;;5102617;28;20062;-48
2022/08/20 13:09:59;;;;;;;4.82;3.35;;;17.50;99.90;;;;;;5102625;28;20043;-48
2022/08/20 13:12:26;;;;;;;4.90;3.65;;;17.50;99.90;;;;;;5105564;28;20468;-49
2022/08/20 13:14:53;;;;;;;6.80;5.00;;;17.40;99.90;;;;;;5103815;28;20039;-48
2022/08/20 13:17:20;;;;;;;10.57;4.07;;;17.40;99.90;;;;;;5092645;28;20593;-48